sensor_id;sensor_type;location;lat;lon;timestamp;P1;durP1;ratioP1;P2;durP2;ratioP2
26963;SDS011;14521;48.148;-1.656;2023-07-24T00:00:29;1.08;;;0.80;;
26963;SDS011;14521;48.148;-1.656;2023-07-24T00:03:51;1.15;;;0.70;;
26963;SDS011;14521;48.148;-1.656;2023-07-24T00:07:16;1.55;;;0.95;;
26963;SDS011;14521;48.148;-1.656;2023-07-24T00:10:38;1.55;;;0.90;;
26963;SDS011;14521;48.148;-1.656;2023-07-24T00:14:01;2.40;;;0.65;;
26963;SDS011;14521;48.148;-1.656;2023-07-24T00:17:23;3.75;;;0.90;;
26963;SDS011;14521;48.148;-1.656;2023-07-24T00:20:46;2.85;;;0.80;;
26963;SDS011;14521;48.148;-1.656;2023-07-24T00:24:08;4.40;;;1.20;;
26963;SDS011;14521;48.148;-1.656;2023-07-24T00:27:30;1.92;;;1.10;;
26963;SDS011;14521;48.148;-1.656;2023-07-24T00:30:52;1.67;;;1.00;;
26963;SDS011;14521;48.148;-1.656;2023-07-24T00:34:14;1.30;;;1.20;;
26963;SDS011;14521;48.148;-1.656;2023-07-24T00:37:37;2.17;;;0.90;;
26963;SDS011;14521;48.148;-1.656;2023-07-24T00:40:59;2.08;;;1.00;;
26963;SDS011;14521;48.148;-1.656;2023-07-24T00:44:21;1.10;;;1.00;;
26963;SDS011;14521;48.148;-1.656;2023-07-24T00:47:43;4.30;;;0.80;;
26963;SDS011;14521;48.148;-1.656;2023-07-24T00:51:06;1.00;;;0.95;;
26963;SDS011;14521;48.148;-1.656;2023-07-24T00:54:29;0.80;;;0.80;;
26963;SDS011;14521;48.148;-1.656;2023-07-24T00:57:54;2.40;;;1.05;;
26963;SDS011;14521;48.148;-1.656;2023-07-24T01:04:41;1.38;;;1.00;;
26963;SDS011;14521;48.148;-1.656;2023-07-24T01:08:04;4.20;;;1.25;;
26963;SDS011;14521;48.148;-1.656;2023-07-24T01:15:02;1.38;;;1.00;;
26963;SDS011;14521;48.148;-1.656;2023-07-24T01:18:33;6.03;;;1.02;;
26963;SDS011;14521;48.148;-1.656;2023-07-24T01:22:10;4.20;;;0.95;;
26963;SDS011;14521;48.148;-1.656;2023-07-24T01:25:59;1.40;;;1.15;;
26963;SDS011;14521;48.148;-1.656;2023-07-24T01:29:24;4.30;;;1.15;;
26963;SDS011;14521;48.148;-1.656;2023-07-24T01:32:46;5.40;;;1.05;;
26963;SDS011;14521;48.148;-1.656;2023-07-24T01:36:10;2.25;;;1.20;;
26963;SDS011;14521;48.148;-1.656;2023-07-24T01:39:35;3.97;;;1.27;;
26963;SDS011;14521;48.148;-1.656;2023-07-24T01:42:58;1.50;;;1.15;;
26963;SDS011;14521;48.148;-1.656;2023-07-24T01:46:21;3.47;;;1.15;;
26963;SDS011;14521;48.148;-1.656;2023-07-24T01:49:43;1.15;;;1.05;;
26963;SDS011;14521;48.148;-1.656;2023-07-24T01:53:05;4.72;;;1.13;;
26963;SDS011;14521;48.148;-1.656;2023-07-24T01:56:28;1.63;;;1.00;;
26963;SDS011;14521;48.148;-1.656;2023-07-24T01:59:50;4.90;;;1.27;;
26963;SDS011;14521;48.148;-1.656;2023-07-24T02:03:13;2.22;;;1.10;;
26963;SDS011;14521;48.148;-1.656;2023-07-24T02:06:35;3.30;;;1.23;;
26963;SDS011;14521;48.148;-1.656;2023-07-24T02:09:57;1.45;;;1.10;;
26963;SDS011;14521;48.148;-1.656;2023-07-24T02:13:20;2.33;;;1.67;;
26963;SDS011;14521;48.148;-1.656;2023-07-24T02:16:43;2.78;;;1.20;;
26963;SDS011;14521;48.148;-1.656;2023-07-24T02:20:06;3.40;;;1.60;;
26963;SDS011;14521;48.148;-1.656;2023-07-24T02:23:29;1.23;;;1.13;;
26963;SDS011;14521;48.148;-1.656;2023-07-24T02:26:51;2.83;;;1.20;;
26963;SDS011;14521;48.148;-1.656;2023-07-24T02:30:14;3.05;;;1.42;;
26963;SDS011;14521;48.148;-1.656;2023-07-24T02:33:37;5.78;;;1.70;;
26963;SDS011;14521;48.148;-1.656;2023-07-24T02:37:00;2.33;;;1.20;;
26963;SDS011;14521;48.148;-1.656;2023-07-24T02:40:23;3.60;;;2.00;;
26963;SDS011;14521;48.148;-1.656;2023-07-24T02:43:45;3.03;;;1.70;;
26963;SDS011;14521;48.148;-1.656;2023-07-24T02:47:08;1.42;;;1.25;;
26963;SDS011;14521;48.148;-1.656;2023-07-24T02:50:30;3.85;;;1.38;;
26963;SDS011;14521;48.148;-1.656;2023-07-24T02:53:53;2.88;;;1.30;;
26963;SDS011;14521;48.148;-1.656;2023-07-24T02:57:16;4.07;;;1.63;;
26963;SDS011;14521;48.148;-1.656;2023-07-24T03:00:39;2.58;;;1.55;;
26963;SDS011;14521;48.148;-1.656;2023-07-24T03:04:01;4.00;;;1.13;;
26963;SDS011;14521;48.148;-1.656;2023-07-24T03:07:25;2.13;;;1.40;;
26963;SDS011;14521;48.148;-1.656;2023-07-24T03:10:47;3.85;;;1.20;;
26963;SDS011;14521;48.148;-1.656;2023-07-24T03:14:09;2.35;;;1.50;;
26963;SDS011;14521;48.148;-1.656;2023-07-24T03:17:32;3.03;;;1.85;;
26963;SDS011;14521;48.148;-1.656;2023-07-24T03:20:56;4.72;;;1.40;;
26963;SDS011;14521;48.148;-1.656;2023-07-24T03:24:20;3.80;;;1.30;;
26963;SDS011;14521;48.148;-1.656;2023-07-24T03:27:42;2.33;;;1.40;;
26963;SDS011;14521;48.148;-1.656;2023-07-24T03:31:04;8.48;;;1.52;;
26963;SDS011;14521;48.148;-1.656;2023-07-24T03:34:27;4.40;;;1.98;;
26963;SDS011;14521;48.148;-1.656;2023-07-24T03:37:49;4.25;;;1.40;;
26963;SDS011;14521;48.148;-1.656;2023-07-24T03:41:11;2.85;;;1.45;;
26963;SDS011;14521;48.148;-1.656;2023-07-24T03:44:34;3.88;;;1.48;;
26963;SDS011;14521;48.148;-1.656;2023-07-24T03:47:56;4.65;;;1.83;;
26963;SDS011;14521;48.148;-1.656;2023-07-24T03:51:18;2.88;;;1.42;;
26963;SDS011;14521;48.148;-1.656;2023-07-24T03:54:40;1.92;;;1.42;;
26963;SDS011;14521;48.148;-1.656;2023-07-24T03:58:04;2.25;;;1.20;;
26963;SDS011;14521;48.148;-1.656;2023-07-24T04:01:26;10.65;;;1.52;;
26963;SDS011;14521;48.148;-1.656;2023-07-24T04:04:48;4.07;;;1.27;;
26963;SDS011;14521;48.148;-1.656;2023-07-24T04:08:10;3.45;;;1.60;;
26963;SDS011;14521;48.148;-1.656;2023-07-24T04:11:33;1.73;;;1.10;;
26963;SDS011;14521;48.148;-1.656;2023-07-24T04:14:55;4.00;;;1.20;;
26963;SDS011;14521;48.148;-1.656;2023-07-24T04:18:17;2.67;;;1.27;;
26963;SDS011;14521;48.148;-1.656;2023-07-24T04:21:40;10.18;;;1.55;;
26963;SDS011;14521;48.148;-1.656;2023-07-24T04:25:03;2.40;;;1.20;;
26963;SDS011;14521;48.148;-1.656;2023-07-24T04:28:25;3.65;;;1.45;;
26963;SDS011;14521;48.148;-1.656;2023-07-24T04:31:47;2.58;;;1.40;;
26963;SDS011;14521;48.148;-1.656;2023-07-24T04:35:10;5.82;;;1.20;;
26963;SDS011;14521;48.148;-1.656;2023-07-24T04:38:32;1.70;;;1.30;;
26963;SDS011;14521;48.148;-1.656;2023-07-24T04:41:54;2.42;;;1.15;;
26963;SDS011;14521;48.148;-1.656;2023-07-24T04:45:16;3.40;;;1.40;;
26963;SDS011;14521;48.148;-1.656;2023-07-24T04:48:39;1.88;;;1.20;;
26963;SDS011;14521;48.148;-1.656;2023-07-24T04:52:01;2.40;;;1.00;;
26963;SDS011;14521;48.148;-1.656;2023-07-24T04:55:23;4.90;;;1.10;;
26963;SDS011;14521;48.148;-1.656;2023-07-24T04:58:45;1.98;;;1.35;;
26963;SDS011;14521;48.148;-1.656;2023-07-24T05:02:08;1.50;;;1.00;;
26963;SDS011;14521;48.148;-1.656;2023-07-24T05:05:30;1.63;;;1.00;;
26963;SDS011;14521;48.148;-1.656;2023-07-24T05:08:53;5.68;;;1.10;;
26963;SDS011;14521;48.148;-1.656;2023-07-24T05:12:15;2.08;;;0.90;;
26963;SDS011;14521;48.148;-1.656;2023-07-24T05:15:37;3.15;;;1.30;;
26963;SDS011;14521;48.148;-1.656;2023-07-24T05:19:00;1.20;;;1.10;;
26963;SDS011;14521;48.148;-1.656;2023-07-24T05:22:22;1.65;;;0.90;;
26963;SDS011;14521;48.148;-1.656;2023-07-24T05:25:44;4.93;;;1.10;;
26963;SDS011;14521;48.148;-1.656;2023-07-24T05:29:07;1.75;;;1.10;;
26963;SDS011;14521;48.148;-1.656;2023-07-24T05:32:29;2.05;;;1.23;;
26963;SDS011;14521;48.148;-1.656;2023-07-24T05:35:51;2.13;;;1.23;;
26963;SDS011;14521;48.148;-1.656;2023-07-24T05:39:18;2.70;;;1.05;;
26963;SDS011;14521;48.148;-1.656;2023-07-24T05:42:40;4.80;;;1.10;;
26963;SDS011;14521;48.148;-1.656;2023-07-24T05:46:03;3.95;;;1.60;;
26963;SDS011;14521;48.148;-1.656;2023-07-24T05:49:25;8.98;;;1.52;;
26963;SDS011;14521;48.148;-1.656;2023-07-24T05:52:48;3.22;;;1.50;;
26963;SDS011;14521;48.148;-1.656;2023-07-24T05:56:10;2.70;;;1.13;;
26963;SDS011;14521;48.148;-1.656;2023-07-24T05:59:32;3.65;;;1.30;;
26963;SDS011;14521;48.148;-1.656;2023-07-24T06:02:54;4.10;;;1.23;;
26963;SDS011;14521;48.148;-1.656;2023-07-24T06:06:18;4.45;;;1.25;;
26963;SDS011;14521;48.148;-1.656;2023-07-24T06:09:41;3.38;;;1.50;;
26963;SDS011;14521;48.148;-1.656;2023-07-24T06:13:03;5.00;;;1.30;;
26963;SDS011;14521;48.148;-1.656;2023-07-24T06:16:25;9.15;;;1.35;;
26963;SDS011;14521;48.148;-1.656;2023-07-24T06:19:47;10.25;;;1.75;;
26963;SDS011;14521;48.148;-1.656;2023-07-24T06:23:10;6.97;;;1.45;;
26963;SDS011;14521;48.148;-1.656;2023-07-24T06:26:32;5.30;;;1.20;;
26963;SDS011;14521;48.148;-1.656;2023-07-24T06:29:54;2.75;;;1.10;;
26963;SDS011;14521;48.148;-1.656;2023-07-24T06:33:35;2.05;;;1.30;;
26963;SDS011;14521;48.148;-1.656;2023-07-24T06:36:57;1.73;;;0.90;;
26963;SDS011;14521;48.148;-1.656;2023-07-24T06:40:33;3.13;;;1.02;;
26963;SDS011;14521;48.148;-1.656;2023-07-24T06:43:55;7.05;;;1.30;;
26963;SDS011;14521;48.148;-1.656;2023-07-24T06:47:18;5.82;;;1.15;;
26963;SDS011;14521;48.148;-1.656;2023-07-24T06:50:40;7.95;;;0.90;;
26963;SDS011;14521;48.148;-1.656;2023-07-24T06:54:02;4.65;;;0.98;;
26963;SDS011;14521;48.148;-1.656;2023-07-24T06:57:24;5.57;;;1.17;;
26963;SDS011;14521;48.148;-1.656;2023-07-24T07:00:47;4.75;;;1.50;;
26963;SDS011;14521;48.148;-1.656;2023-07-24T07:04:09;2.83;;;1.10;;
26963;SDS011;14521;48.148;-1.656;2023-07-24T07:07:31;3.35;;;1.27;;
26963;SDS011;14521;48.148;-1.656;2023-07-24T07:10:55;6.05;;;1.38;;
26963;SDS011;14521;48.148;-1.656;2023-07-24T07:14:20;2.65;;;0.90;;
26963;SDS011;14521;48.148;-1.656;2023-07-24T07:17:43;4.82;;;1.33;;
26963;SDS011;14521;48.148;-1.656;2023-07-24T07:21:05;7.68;;;1.20;;
26963;SDS011;14521;48.148;-1.656;2023-07-24T07:24:27;3.65;;;1.02;;
26963;SDS011;14521;48.148;-1.656;2023-07-24T07:27:50;4.18;;;0.82;;
26963;SDS011;14521;48.148;-1.656;2023-07-24T07:31:12;2.30;;;0.90;;
26963;SDS011;14521;48.148;-1.656;2023-07-24T07:34:34;9.35;;;1.02;;
26963;SDS011;14521;48.148;-1.656;2023-07-24T07:37:57;3.65;;;0.80;;
26963;SDS011;14521;48.148;-1.656;2023-07-24T07:41:20;6.20;;;1.20;;
26963;SDS011;14521;48.148;-1.656;2023-07-24T07:44:42;4.82;;;0.90;;
26963;SDS011;14521;48.148;-1.656;2023-07-24T07:48:04;5.55;;;1.02;;
26963;SDS011;14521;48.148;-1.656;2023-07-24T07:51:27;2.25;;;1.10;;
26963;SDS011;14521;48.148;-1.656;2023-07-24T07:54:49;2.97;;;0.73;;
26963;SDS011;14521;48.148;-1.656;2023-07-24T07:58:12;4.90;;;1.00;;
26963;SDS011;14521;48.148;-1.656;2023-07-24T08:01:35;6.45;;;1.27;;
26963;SDS011;14521;48.148;-1.656;2023-07-24T08:05:00;2.83;;;0.88;;
26963;SDS011;14521;48.148;-1.656;2023-07-24T08:08:33;2.53;;;0.60;;
26963;SDS011;14521;48.148;-1.656;2023-07-24T08:11:55;5.15;;;1.65;;
26963;SDS011;14521;48.148;-1.656;2023-07-24T08:15:18;4.68;;;1.00;;
26963;SDS011;14521;48.148;-1.656;2023-07-24T08:18:40;2.90;;;0.90;;
26963;SDS011;14521;48.148;-1.656;2023-07-24T08:22:02;3.42;;;0.75;;
26963;SDS011;14521;48.148;-1.656;2023-07-24T08:25:27;1.73;;;1.00;;
26963;SDS011;14521;48.148;-1.656;2023-07-24T08:28:49;1.30;;;1.15;;
26963;SDS011;14521;48.148;-1.656;2023-07-24T08:32:11;1.83;;;0.68;;
26963;SDS011;14521;48.148;-1.656;2023-07-24T08:35:34;0.95;;;0.80;;
26963;SDS011;14521;48.148;-1.656;2023-07-24T08:38:57;2.92;;;0.88;;
26963;SDS011;14521;48.148;-1.656;2023-07-24T08:42:19;3.85;;;0.60;;
26963;SDS011;14521;48.148;-1.656;2023-07-24T08:45:41;3.58;;;0.65;;
26963;SDS011;14521;48.148;-1.656;2023-07-24T08:49:04;1.58;;;0.70;;
26963;SDS011;14521;48.148;-1.656;2023-07-24T08:52:27;2.63;;;0.60;;
26963;SDS011;14521;48.148;-1.656;2023-07-24T08:55:57;1.20;;;0.68;;
26963;SDS011;14521;48.148;-1.656;2023-07-24T08:59:21;2.40;;;0.80;;
26963;SDS011;14521;48.148;-1.656;2023-07-24T09:02:44;2.63;;;0.70;;
26963;SDS011;14521;48.148;-1.656;2023-07-24T09:06:06;2.97;;;0.80;;
26963;SDS011;14521;48.148;-1.656;2023-07-24T09:09:29;1.80;;;0.60;;
26963;SDS011;14521;48.148;-1.656;2023-07-24T09:12:55;1.60;;;0.63;;
26963;SDS011;14521;48.148;-1.656;2023-07-24T09:16:21;1.63;;;0.60;;
26963;SDS011;14521;48.148;-1.656;2023-07-24T09:19:45;2.80;;;0.60;;
26963;SDS011;14521;48.148;-1.656;2023-07-24T09:23:24;1.85;;;0.60;;
26963;SDS011;14521;48.148;-1.656;2023-07-24T09:26:49;3.58;;;0.82;;
26963;SDS011;14521;48.148;-1.656;2023-07-24T09:30:13;2.90;;;0.67;;
26963;SDS011;14521;48.148;-1.656;2023-07-24T09:33:36;2.00;;;0.70;;
26963;SDS011;14521;48.148;-1.656;2023-07-24T09:37:00;3.43;;;0.50;;
26963;SDS011;14521;48.148;-1.656;2023-07-24T09:40:22;5.20;;;0.50;;
26963;SDS011;14521;48.148;-1.656;2023-07-24T09:43:44;1.95;;;0.60;;
26963;SDS011;14521;48.148;-1.656;2023-07-24T09:47:07;3.50;;;0.70;;
26963;SDS011;14521;48.148;-1.656;2023-07-24T09:50:52;1.30;;;0.38;;
26963;SDS011;14521;48.148;-1.656;2023-07-24T09:54:15;2.03;;;0.50;;
26963;SDS011;14521;48.148;-1.656;2023-07-24T09:57:47;3.10;;;0.40;;
26963;SDS011;14521;48.148;-1.656;2023-07-24T10:01:11;2.47;;;0.40;;
26963;SDS011;14521;48.148;-1.656;2023-07-24T10:04:33;2.40;;;1.00;;
26963;SDS011;14521;48.148;-1.656;2023-07-24T10:07:56;2.58;;;0.32;;
26963;SDS011;14521;48.148;-1.656;2023-07-24T10:11:19;2.50;;;0.60;;
26963;SDS011;14521;48.148;-1.656;2023-07-24T10:14:44;4.57;;;0.50;;
26963;SDS011;14521;48.148;-1.656;2023-07-24T10:18:10;1.80;;;0.40;;
26963;SDS011;14521;48.148;-1.656;2023-07-24T10:21:33;3.72;;;0.50;;
26963;SDS011;14521;48.148;-1.656;2023-07-24T10:24:55;1.45;;;0.40;;
26963;SDS011;14521;48.148;-1.656;2023-07-24T10:28:18;2.33;;;0.30;;
26963;SDS011;14521;48.148;-1.656;2023-07-24T10:31:41;1.50;;;0.30;;
26963;SDS011;14521;48.148;-1.656;2023-07-24T10:35:15;0.80;;;0.35;;
26963;SDS011;14521;48.148;-1.656;2023-07-24T10:38:40;1.38;;;0.82;;
26963;SDS011;14521;48.148;-1.656;2023-07-24T10:42:07;1.23;;;0.30;;
26963;SDS011;14521;48.148;-1.656;2023-07-24T10:49:13;1.95;;;0.60;;
26963;SDS011;14521;48.148;-1.656;2023-07-24T10:52:43;1.50;;;0.50;;
26963;SDS011;14521;48.148;-1.656;2023-07-24T10:56:05;0.38;;;0.25;;
26963;SDS011;14521;48.148;-1.656;2023-07-24T10:59:35;1.50;;;0.47;;
26963;SDS011;14521;48.148;-1.656;2023-07-24T11:03:01;0.98;;;0.30;;
26963;SDS011;14521;48.148;-1.656;2023-07-24T11:06:23;1.10;;;0.30;;
26963;SDS011;14521;48.148;-1.656;2023-07-24T11:09:45;5.90;;;0.40;;
26963;SDS011;14521;48.148;-1.656;2023-07-24T11:13:09;1.15;;;0.20;;
26963;SDS011;14521;48.148;-1.656;2023-07-24T11:16:32;1.27;;;0.23;;
26963;SDS011;14521;48.148;-1.656;2023-07-24T11:20:16;1.10;;;0.30;;
26963;SDS011;14521;48.148;-1.656;2023-07-24T11:23:44;5.28;;;0.30;;
26963;SDS011;14521;48.148;-1.656;2023-07-24T11:27:17;3.70;;;0.40;;
26963;SDS011;14521;48.148;-1.656;2023-07-24T11:30:41;0.77;;;0.45;;
26963;SDS011;14521;48.148;-1.656;2023-07-24T11:34:05;0.20;;;0.20;;
26963;SDS011;14521;48.148;-1.656;2023-07-24T11:37:27;0.60;;;0.17;;
26963;SDS011;14521;48.148;-1.656;2023-07-24T11:40:50;1.60;;;0.15;;
26963;SDS011;14521;48.148;-1.656;2023-07-24T11:44:24;0.68;;;0.20;;
26963;SDS011;14521;48.148;-1.656;2023-07-24T11:47:48;1.08;;;0.28;;
26963;SDS011;14521;48.148;-1.656;2023-07-24T11:51:12;0.68;;;0.17;;
26963;SDS011;14521;48.148;-1.656;2023-07-24T11:54:34;1.67;;;0.22;;
26963;SDS011;14521;48.148;-1.656;2023-07-24T12:01:20;0.88;;;0.20;;
26963;SDS011;14521;48.148;-1.656;2023-07-24T12:04:42;0.45;;;0.30;;
26963;SDS011;14521;48.148;-1.656;2023-07-24T12:08:04;0.40;;;0.30;;
26963;SDS011;14521;48.148;-1.656;2023-07-24T12:11:26;5.72;;;0.73;;
26963;SDS011;14521;48.148;-1.656;2023-07-24T12:14:49;1.20;;;0.30;;
26963;SDS011;14521;48.148;-1.656;2023-07-24T12:18:14;3.37;;;0.40;;
26963;SDS011;14521;48.148;-1.656;2023-07-24T12:21:37;1.23;;;0.30;;
26963;SDS011;14521;48.148;-1.656;2023-07-24T12:24:59;7.70;;;0.52;;
26963;SDS011;14521;48.148;-1.656;2023-07-24T12:28:22;2.00;;;0.40;;
26963;SDS011;14521;48.148;-1.656;2023-07-24T12:31:45;3.17;;;0.32;;
26963;SDS011;14521;48.148;-1.656;2023-07-24T12:35:07;5.40;;;0.50;;
26963;SDS011;14521;48.148;-1.656;2023-07-24T12:38:31;0.82;;;0.50;;
26963;SDS011;14521;48.148;-1.656;2023-07-24T12:41:53;1.10;;;0.30;;
26963;SDS011;14521;48.148;-1.656;2023-07-24T12:45:15;1.55;;;0.52;;
26963;SDS011;14521;48.148;-1.656;2023-07-24T12:48:38;3.72;;;0.43;;
26963;SDS011;14521;48.148;-1.656;2023-07-24T12:52:00;1.73;;;0.45;;
26963;SDS011;14521;48.148;-1.656;2023-07-24T12:55:24;1.50;;;0.40;;
26963;SDS011;14521;48.148;-1.656;2023-07-24T12:58:46;1.45;;;0.40;;
26963;SDS011;14521;48.148;-1.656;2023-07-24T13:02:08;3.55;;;0.50;;
26963;SDS011;14521;48.148;-1.656;2023-07-24T13:05:31;1.08;;;0.45;;
26963;SDS011;14521;48.148;-1.656;2023-07-24T13:08:54;1.20;;;0.45;;
26963;SDS011;14521;48.148;-1.656;2023-07-24T13:12:16;0.73;;;0.40;;
26963;SDS011;14521;48.148;-1.656;2023-07-24T13:15:38;2.17;;;0.40;;
26963;SDS011;14521;48.148;-1.656;2023-07-24T13:19:01;1.73;;;0.50;;
26963;SDS011;14521;48.148;-1.656;2023-07-24T13:22:23;2.95;;;0.40;;
26963;SDS011;14521;48.148;-1.656;2023-07-24T13:25:45;2.00;;;0.30;;
26963;SDS011;14521;48.148;-1.656;2023-07-24T13:29:07;1.02;;;0.65;;
26963;SDS011;14521;48.148;-1.656;2023-07-24T13:32:30;2.88;;;0.65;;
26963;SDS011;14521;48.148;-1.656;2023-07-24T13:35:52;1.83;;;0.47;;
26963;SDS011;14521;48.148;-1.656;2023-07-24T13:39:14;2.70;;;0.40;;
26963;SDS011;14521;48.148;-1.656;2023-07-24T13:42:37;2.13;;;0.85;;
26963;SDS011;14521;48.148;-1.656;2023-07-24T13:45:59;2.35;;;0.50;;
26963;SDS011;14521;48.148;-1.656;2023-07-24T13:49:22;2.88;;;0.90;;
26963;SDS011;14521;48.148;-1.656;2023-07-24T13:52:44;3.60;;;0.50;;
26963;SDS011;14521;48.148;-1.656;2023-07-24T13:56:06;4.53;;;0.50;;
26963;SDS011;14521;48.148;-1.656;2023-07-24T13:59:28;1.95;;;0.47;;
26963;SDS011;14521;48.148;-1.656;2023-07-24T14:02:51;2.80;;;0.47;;
26963;SDS011;14521;48.148;-1.656;2023-07-24T14:06:13;4.00;;;0.38;;
26963;SDS011;14521;48.148;-1.656;2023-07-24T14:09:35;1.10;;;0.40;;
26963;SDS011;14521;48.148;-1.656;2023-07-24T14:12:57;2.42;;;0.60;;
26963;SDS011;14521;48.148;-1.656;2023-07-24T14:16:20;0.90;;;0.50;;
26963;SDS011;14521;48.148;-1.656;2023-07-24T14:19:42;2.10;;;0.50;;
26963;SDS011;14521;48.148;-1.656;2023-07-24T14:23:04;1.58;;;0.40;;
26963;SDS011;14521;48.148;-1.656;2023-07-24T14:26:26;2.10;;;0.60;;
26963;SDS011;14521;48.148;-1.656;2023-07-24T14:29:49;2.05;;;0.50;;
26963;SDS011;14521;48.148;-1.656;2023-07-24T14:33:11;2.65;;;0.55;;
26963;SDS011;14521;48.148;-1.656;2023-07-24T14:36:33;1.15;;;0.50;;
26963;SDS011;14521;48.148;-1.656;2023-07-24T14:39:56;1.90;;;0.40;;
26963;SDS011;14521;48.148;-1.656;2023-07-24T14:43:18;1.40;;;0.38;;
26963;SDS011;14521;48.148;-1.656;2023-07-24T14:46:40;4.35;;;0.90;;
26963;SDS011;14521;48.148;-1.656;2023-07-24T14:50:03;0.55;;;0.35;;
26963;SDS011;14521;48.148;-1.656;2023-07-24T14:53:25;1.42;;;0.50;;
26963;SDS011;14521;48.148;-1.656;2023-07-24T14:56:48;1.15;;;0.52;;
26963;SDS011;14521;48.148;-1.656;2023-07-24T15:00:25;0.85;;;0.38;;
26963;SDS011;14521;48.148;-1.656;2023-07-24T15:03:47;0.40;;;0.30;;
26963;SDS011;14521;48.148;-1.656;2023-07-24T15:07:09;0.80;;;0.38;;
26963;SDS011;14521;48.148;-1.656;2023-07-24T15:10:31;0.85;;;0.30;;
26963;SDS011;14521;48.148;-1.656;2023-07-24T15:13:54;1.05;;;0.30;;
26963;SDS011;14521;48.148;-1.656;2023-07-24T15:17:19;7.07;;;0.73;;
26963;SDS011;14521;48.148;-1.656;2023-07-24T15:20:41;0.85;;;0.22;;
26963;SDS011;14521;48.148;-1.656;2023-07-24T15:24:03;0.95;;;0.40;;
26963;SDS011;14521;48.148;-1.656;2023-07-24T15:27:26;1.05;;;0.52;;
26963;SDS011;14521;48.148;-1.656;2023-07-24T15:30:48;1.30;;;0.43;;
26963;SDS011;14521;48.148;-1.656;2023-07-24T15:34:10;0.88;;;0.40;;
26963;SDS011;14521;48.148;-1.656;2023-07-24T15:37:32;0.93;;;0.45;;
26963;SDS011;14521;48.148;-1.656;2023-07-24T15:40:55;1.88;;;0.50;;
26963;SDS011;14521;48.148;-1.656;2023-07-24T15:44:17;1.42;;;0.50;;
26963;SDS011;14521;48.148;-1.656;2023-07-24T15:47:39;0.68;;;0.20;;
26963;SDS011;14521;48.148;-1.656;2023-07-24T15:51:02;0.47;;;0.47;;
26963;SDS011;14521;48.148;-1.656;2023-07-24T15:54:24;0.40;;;0.35;;
26963;SDS011;14521;48.148;-1.656;2023-07-24T15:57:46;0.90;;;0.40;;
26963;SDS011;14521;48.148;-1.656;2023-07-24T16:01:09;0.30;;;0.30;;
26963;SDS011;14521;48.148;-1.656;2023-07-24T16:04:31;1.10;;;0.22;;
26963;SDS011;14521;48.148;-1.656;2023-07-24T16:07:54;1.20;;;0.40;;
26963;SDS011;14521;48.148;-1.656;2023-07-24T16:11:16;2.15;;;0.38;;
26963;SDS011;14521;48.148;-1.656;2023-07-24T16:14:39;1.73;;;0.38;;
26963;SDS011;14521;48.148;-1.656;2023-07-24T16:18:01;0.50;;;0.25;;
26963;SDS011;14521;48.148;-1.656;2023-07-24T16:21:26;0.68;;;0.30;;
26963;SDS011;14521;48.148;-1.656;2023-07-24T16:24:51;1.65;;;0.40;;
26963;SDS011;14521;48.148;-1.656;2023-07-24T16:28:13;1.65;;;0.30;;
26963;SDS011;14521;48.148;-1.656;2023-07-24T16:31:35;0.30;;;0.30;;
26963;SDS011;14521;48.148;-1.656;2023-07-24T16:34:58;0.50;;;0.28;;
26963;SDS011;14521;48.148;-1.656;2023-07-24T16:38:21;0.20;;;0.20;;
26963;SDS011;14521;48.148;-1.656;2023-07-24T16:41:44;0.65;;;0.50;;
26963;SDS011;14521;48.148;-1.656;2023-07-24T16:45:06;2.97;;;0.40;;
26963;SDS011;14521;48.148;-1.656;2023-07-24T16:48:31;0.65;;;0.40;;
26963;SDS011;14521;48.148;-1.656;2023-07-24T16:51:54;0.52;;;0.30;;
26963;SDS011;14521;48.148;-1.656;2023-07-24T16:55:16;0.60;;;0.40;;
26963;SDS011;14521;48.148;-1.656;2023-07-24T16:58:38;0.57;;;0.28;;
26963;SDS011;14521;48.148;-1.656;2023-07-24T17:02:01;0.20;;;0.20;;
26963;SDS011;14521;48.148;-1.656;2023-07-24T17:05:23;1.20;;;0.50;;
26963;SDS011;14521;48.148;-1.656;2023-07-24T17:08:45;3.63;;;1.50;;
26963;SDS011;14521;48.148;-1.656;2023-07-24T17:12:09;5.18;;;2.08;;
26963;SDS011;14521;48.148;-1.656;2023-07-24T17:15:31;6.90;;;3.70;;
26963;SDS011;14521;48.148;-1.656;2023-07-24T17:18:53;11.38;;;4.18;;
26963;SDS011;14521;48.148;-1.656;2023-07-24T17:22:17;9.30;;;3.05;;
26963;SDS011;14521;48.148;-1.656;2023-07-24T17:25:40;18.67;;;5.63;;
26963;SDS011;14521;48.148;-1.656;2023-07-24T17:29:02;18.73;;;6.03;;
26963;SDS011;14521;48.148;-1.656;2023-07-24T17:32:24;12.00;;;5.65;;
26963;SDS011;14521;48.148;-1.656;2023-07-24T17:35:46;17.45;;;5.22;;
26963;SDS011;14521;48.148;-1.656;2023-07-24T17:39:09;13.27;;;4.03;;
26963;SDS011;14521;48.148;-1.656;2023-07-24T17:42:31;14.82;;;4.70;;
26963;SDS011;14521;48.148;-1.656;2023-07-24T17:45:53;13.93;;;4.78;;
26963;SDS011;14521;48.148;-1.656;2023-07-24T17:49:16;13.57;;;4.63;;
26963;SDS011;14521;48.148;-1.656;2023-07-24T17:52:38;18.92;;;5.22;;
26963;SDS011;14521;48.148;-1.656;2023-07-24T17:56:01;14.95;;;4.38;;
26963;SDS011;14521;48.148;-1.656;2023-07-24T17:59:23;17.25;;;3.85;;
26963;SDS011;14521;48.148;-1.656;2023-07-24T18:02:45;10.15;;;3.25;;
26963;SDS011;14521;48.148;-1.656;2023-07-24T18:06:08;7.93;;;3.55;;
26963;SDS011;14521;48.148;-1.656;2023-07-24T18:09:30;9.30;;;3.15;;
26963;SDS011;14521;48.148;-1.656;2023-07-24T18:12:52;11.93;;;3.00;;
26963;SDS011;14521;48.148;-1.656;2023-07-24T18:16:14;11.88;;;2.42;;
26963;SDS011;14521;48.148;-1.656;2023-07-24T18:19:38;11.18;;;3.08;;
26963;SDS011;14521;48.148;-1.656;2023-07-24T18:23:00;4.97;;;1.95;;
26963;SDS011;14521;48.148;-1.656;2023-07-24T18:26:23;4.72;;;2.58;;
26963;SDS011;14521;48.148;-1.656;2023-07-24T18:29:46;8.35;;;2.33;;
26963;SDS011;14521;48.148;-1.656;2023-07-24T18:33:08;4.40;;;2.10;;
26963;SDS011;14521;48.148;-1.656;2023-07-24T18:36:31;8.32;;;1.90;;
26963;SDS011;14521;48.148;-1.656;2023-07-24T18:39:54;3.80;;;2.00;;
26963;SDS011;14521;48.148;-1.656;2023-07-24T18:43:16;4.75;;;1.80;;
26963;SDS011;14521;48.148;-1.656;2023-07-24T18:46:38;3.88;;;1.48;;
26963;SDS011;14521;48.148;-1.656;2023-07-24T18:50:01;5.03;;;2.35;;
26963;SDS011;14521;48.148;-1.656;2023-07-24T18:53:24;5.38;;;2.00;;
26963;SDS011;14521;48.148;-1.656;2023-07-24T18:56:46;4.32;;;2.03;;
26963;SDS011;14521;48.148;-1.656;2023-07-24T19:00:09;2.72;;;1.52;;
26963;SDS011;14521;48.148;-1.656;2023-07-24T19:03:31;4.13;;;1.50;;
26963;SDS011;14521;48.148;-1.656;2023-07-24T19:06:54;5.15;;;1.45;;
26963;SDS011;14521;48.148;-1.656;2023-07-24T19:10:16;1.83;;;1.40;;
26963;SDS011;14521;48.148;-1.656;2023-07-24T19:13:39;4.45;;;1.58;;
26963;SDS011;14521;48.148;-1.656;2023-07-24T19:17:01;4.10;;;1.20;;
26963;SDS011;14521;48.148;-1.656;2023-07-24T19:20:24;2.35;;;1.25;;
26963;SDS011;14521;48.148;-1.656;2023-07-24T19:23:46;2.92;;;1.15;;
26963;SDS011;14521;48.148;-1.656;2023-07-24T19:27:08;5.47;;;1.50;;
26963;SDS011;14521;48.148;-1.656;2023-07-24T19:30:30;4.63;;;1.33;;
26963;SDS011;14521;48.148;-1.656;2023-07-24T19:33:53;2.70;;;1.30;;
26963;SDS011;14521;48.148;-1.656;2023-07-24T19:37:15;3.22;;;1.63;;
26963;SDS011;14521;48.148;-1.656;2023-07-24T19:40:37;2.58;;;1.00;;
26963;SDS011;14521;48.148;-1.656;2023-07-24T19:44:00;2.00;;;1.17;;
26963;SDS011;14521;48.148;-1.656;2023-07-24T19:47:22;3.55;;;1.65;;
26963;SDS011;14521;48.148;-1.656;2023-07-24T19:50:51;2.20;;;0.95;;
26963;SDS011;14521;48.148;-1.656;2023-07-24T19:54:16;1.60;;;1.02;;
26963;SDS011;14521;48.148;-1.656;2023-07-24T19:57:38;1.00;;;0.85;;
26963;SDS011;14521;48.148;-1.656;2023-07-24T20:01:02;2.33;;;1.25;;
26963;SDS011;14521;48.148;-1.656;2023-07-24T20:04:25;1.85;;;0.98;;
26963;SDS011;14521;48.148;-1.656;2023-07-24T20:07:47;3.30;;;0.90;;
26963;SDS011;14521;48.148;-1.656;2023-07-24T20:11:10;3.80;;;0.93;;
26963;SDS011;14521;48.148;-1.656;2023-07-24T20:14:32;0.88;;;0.88;;
26963;SDS011;14521;48.148;-1.656;2023-07-24T20:17:54;2.30;;;0.93;;